sensor_id;sensor_type;location;lat;lon;timestamp;pressure;altitude;pressure_sealevel;temperature;humidity
27210;BME280;14721;42.668;23.386;2022-10-04T00:00:27;95521.84;;;11.52;75.10
27210;BME280;14721;42.668;23.386;2022-10-04T00:02:58;95517.81;;;11.46;75.48
27210;BME280;14721;42.668;23.386;2022-10-04T00:05:27;95520.59;;;11.44;75.46
27210;BME280;14721;42.668;23.386;2022-10-04T00:07:57;95529.72;;;11.42;75.91
27210;BME280;14721;42.668;23.386;2022-10-04T00:10:30;95517.38;;;11.28;76.06
27210;BME280;14721;42.668;23.386;2022-10-04T00:13:01;95528.06;;;11.28;76.79
27210;BME280;14721;42.668;23.386;2022-10-04T00:15:30;95516.31;;;11.18;76.89
27210;BME280;14721;42.668;23.386;2022-10-04T00:26:00;95522.50;;;11.31;76.13
27210;BME280;14721;42.668;23.386;2022-10-04T00:31:25;95524.41;;;11.29;75.83
27210;BME280;14721;42.668;23.386;2022-10-04T00:44:28;95483.44;;;11.29;74.80
27210;BME280;14721;42.668;23.386;2022-10-04T00:46:59;95496.22;;;11.36;74.08
27210;BME280;14721;42.668;23.386;2022-10-04T00:49:31;95492.28;;;11.42;74.00
27210;BME280;14721;42.668;23.386;2022-10-04T00:52:09;95493.78;;;11.33;74.28
27210;BME280;14721;42.668;23.386;2022-10-04T00:54:43;95474.13;;;11.34;74.49
27210;BME280;14721;42.668;23.386;2022-10-04T00:57:35;95478.84;;;11.31;73.98
27210;BME280;14721;42.668;23.386;2022-10-04T01:00:14;95463.41;;;11.11;74.09
27210;BME280;14721;42.668;23.386;2022-10-04T01:05:14;95481.72;;;11.28;75.57
27210;BME280;14721;42.668;23.386;2022-10-04T01:07:51;95487.53;;;11.22;74.25
27210;BME280;14721;42.668;23.386;2022-10-04T01:10:30;95481.31;;;11.21;74.10
27210;BME280;14721;42.668;23.386;2022-10-04T01:15:49;95486.56;;;11.23;74.04
27210;BME280;14721;42.668;23.386;2022-10-04T01:31:34;95471.28;;;11.01;74.56
27210;BME280;14721;42.668;23.386;2022-10-04T01:34:02;95480.75;;;11.05;74.83
27210;BME280;14721;42.668;23.386;2022-10-04T01:36:29;95486.97;;;11.06;73.99
27210;BME280;14721;42.668;23.386;2022-10-04T01:38:56;95462.94;;;10.93;73.61
27210;BME280;14721;42.668;23.386;2022-10-04T01:44:20;95480.34;;;10.99;73.47
27210;BME280;14721;42.668;23.386;2022-10-04T01:46:48;95485.34;;;11.03;74.29
27210;BME280;14721;42.668;23.386;2022-10-04T01:49:18;95478.44;;;11.01;74.11
27210;BME280;14721;42.668;23.386;2022-10-04T01:51:54;95479.63;;;10.97;73.88
27210;BME280;14721;42.668;23.386;2022-10-04T01:54:29;95481.53;;;10.95;74.09
27210;BME280;14721;42.668;23.386;2022-10-04T01:57:16;95484.44;;;10.92;73.79
27210;BME280;14721;42.668;23.386;2022-10-04T02:00:00;95478.69;;;10.85;73.75
27210;BME280;14721;42.668;23.386;2022-10-04T02:05:04;95488.22;;;10.77;74.44
27210;BME280;14721;42.668;23.386;2022-10-04T02:07:32;95491.00;;;10.75;74.65
27210;BME280;14721;42.668;23.386;2022-10-04T02:10:04;95491.13;;;10.74;74.64
27210;BME280;14721;42.668;23.386;2022-10-04T02:12:32;95493.38;;;10.67;74.50
27210;BME280;14721;42.668;23.386;2022-10-04T02:15:01;95474.38;;;10.59;74.98
27210;BME280;14721;42.668;23.386;2022-10-04T02:17:31;95478.53;;;10.63;74.63
27210;BME280;14721;42.668;23.386;2022-10-04T02:19:59;95500.44;;;10.68;75.07
27210;BME280;14721;42.668;23.386;2022-10-04T02:22:26;95476.75;;;10.51;75.09
27210;BME280;14721;42.668;23.386;2022-10-04T02:24:54;95501.50;;;10.66;75.69
27210;BME280;14721;42.668;23.386;2022-10-04T02:27:25;95497.66;;;10.70;75.22
27210;BME280;14721;42.668;23.386;2022-10-04T02:29:59;95503.44;;;10.64;75.49
27210;BME280;14721;42.668;23.386;2022-10-04T02:32:25;95501.28;;;10.69;76.09
27210;BME280;14721;42.668;23.386;2022-10-04T02:35:09;95506.84;;;10.66;75.89
27210;BME280;14721;42.668;23.386;2022-10-04T02:37:36;95506.13;;;10.64;76.10
27210;BME280;14721;42.668;23.386;2022-10-04T02:40:08;95516.69;;;10.65;76.14
27210;BME280;14721;42.668;23.386;2022-10-04T02:48:32;95522.78;;;10.67;77.18
27210;BME280;14721;42.668;23.386;2022-10-04T02:53:55;95539.34;;;10.60;77.17
27210;BME280;14721;42.668;23.386;2022-10-04T02:56:22;95509.88;;;10.49;77.85
27210;BME280;14721;42.668;23.386;2022-10-04T02:58:50;95536.56;;;10.61;78.00
27210;BME280;14721;42.668;23.386;2022-10-04T03:01:25;95535.19;;;10.68;78.30
27210;BME280;14721;42.668;23.386;2022-10-04T03:03:52;95543.19;;;10.68;78.44
27210;BME280;14721;42.668;23.386;2022-10-04T03:06:20;95525.44;;;10.67;78.34
27210;BME280;14721;42.668;23.386;2022-10-04T03:09:00;95552.69;;;10.72;78.20
27210;BME280;14721;42.668;23.386;2022-10-04T03:11:30;95540.19;;;10.73;78.22
27210;BME280;14721;42.668;23.386;2022-10-04T03:13:59;95545.97;;;10.67;79.10
27210;BME280;14721;42.668;23.386;2022-10-04T03:16:36;95539.56;;;10.69;78.97
27210;BME280;14721;42.668;23.386;2022-10-04T03:19:04;95536.78;;;10.71;78.95
27210;BME280;14721;42.668;23.386;2022-10-04T03:21:31;95541.78;;;10.75;78.88
27210;BME280;14721;42.668;23.386;2022-10-04T03:23:58;95552.16;;;10.80;78.67
27210;BME280;14721;42.668;23.386;2022-10-04T03:28:57;95560.72;;;10.72;78.76
27210;BME280;14721;42.668;23.386;2022-10-04T03:31:24;95541.78;;;10.75;79.51
27210;BME280;14721;42.668;23.386;2022-10-04T03:33:54;95548.72;;;10.78;78.96
27210;BME280;14721;42.668;23.386;2022-10-04T03:36:20;95552.47;;;10.75;78.62
27210;BME280;14721;42.668;23.386;2022-10-04T03:38:48;95562.09;;;10.78;78.68
27210;BME280;14721;42.668;23.386;2022-10-04T03:41:14;95563.38;;;10.72;78.59
27210;BME280;14721;42.668;23.386;2022-10-04T03:43:45;95568.19;;;10.67;78.81
27210;BME280;14721;42.668;23.386;2022-10-04T03:46:13;95572.06;;;10.63;78.70
27210;BME280;14721;42.668;23.386;2022-10-04T03:48:45;95546.75;;;10.44;79.73
27210;BME280;14721;42.668;23.386;2022-10-04T03:51:22;95562.56;;;10.47;79.16
27210;BME280;14721;42.668;23.386;2022-10-04T03:53:52;95565.88;;;10.50;79.27
27210;BME280;14721;42.668;23.386;2022-10-04T03:58:44;95573.03;;;10.50;79.61
27210;BME280;14721;42.668;23.386;2022-10-04T04:01:36;95583.06;;;10.46;79.86
27210;BME280;14721;42.668;23.386;2022-10-04T04:06:40;95573.44;;;10.44;79.75
27210;BME280;14721;42.668;23.386;2022-10-04T04:09:18;95566.53;;;10.41;79.75
27210;BME280;14721;42.668;23.386;2022-10-04T04:11:47;95581.25;;;10.47;80.16
27210;BME280;14721;42.668;23.386;2022-10-04T04:14:23;95583.28;;;10.43;80.10
27210;BME280;14721;42.668;23.386;2022-10-04T04:16:51;95581.78;;;10.39;80.71
27210;BME280;14721;42.668;23.386;2022-10-04T04:19:21;95582.66;;;10.40;80.39
27210;BME280;14721;42.668;23.386;2022-10-04T04:21:48;95577.72;;;10.34;81.02
27210;BME280;14721;42.668;23.386;2022-10-04T04:24:23;95594.81;;;10.31;81.52
27210;BME280;14721;42.668;23.386;2022-10-04T04:26:56;95592.13;;;10.31;81.64
27210;BME280;14721;42.668;23.386;2022-10-04T04:29:32;95600.69;;;10.36;81.00
27210;BME280;14721;42.668;23.386;2022-10-04T04:32:04;95567.03;;;10.09;81.79
27210;BME280;14721;42.668;23.386;2022-10-04T04:34:34;95605.84;;;10.27;81.31
27210;BME280;14721;42.668;23.386;2022-10-04T04:37:10;95599.41;;;10.29;81.31
27210;BME280;14721;42.668;23.386;2022-10-04T04:39:35;95604.22;;;10.37;81.08
27210;BME280;14721;42.668;23.386;2022-10-04T04:44:37;95604.31;;;10.48;81.62
27210;BME280;14721;42.668;23.386;2022-10-04T04:47:08;95603.50;;;10.47;80.82
27210;BME280;14721;42.668;23.386;2022-10-04T04:49:37;95605.75;;;10.53;81.19
27210;BME280;14721;42.668;23.386;2022-10-04T04:52:04;95607.22;;;10.57;81.01
27210;BME280;14721;42.668;23.386;2022-10-04T04:54:33;95610.34;;;10.64;80.51
27210;BME280;14721;42.668;23.386;2022-10-04T04:56:59;95609.03;;;10.69;79.77
27210;BME280;14721;42.668;23.386;2022-10-04T04:59:25;95616.50;;;10.64;79.71
27210;BME280;14721;42.668;23.386;2022-10-04T05:01:52;95614.69;;;10.65;80.53
27210;BME280;14721;42.668;23.386;2022-10-04T05:04:21;95608.81;;;10.72;79.69
27210;BME280;14721;42.668;23.386;2022-10-04T05:06:58;95613.31;;;10.72;79.02
27210;BME280;14721;42.668;23.386;2022-10-04T05:09:35;95613.53;;;10.81;78.80
27210;BME280;14721;42.668;23.386;2022-10-04T05:12:13;95591.31;;;10.68;78.27
27210;BME280;14721;42.668;23.386;2022-10-04T05:14:46;95612.13;;;10.88;77.99
27210;BME280;14721;42.668;23.386;2022-10-04T05:17:29;95615.66;;;10.89;77.23
27210;BME280;14721;42.668;23.386;2022-10-04T05:19:59;95617.22;;;11.16;77.05
27210;BME280;14721;42.668;23.386;2022-10-04T05:22:26;95616.19;;;11.42;75.79
27210;BME280;14721;42.668;23.386;2022-10-04T05:24:57;95620.84;;;11.88;74.18
27210;BME280;14721;42.668;23.386;2022-10-04T05:27:29;95616.69;;;12.42;72.23
27210;BME280;14721;42.668;23.386;2022-10-04T05:30:07;95612.81;;;13.02;68.21
27210;BME280;14721;42.668;23.386;2022-10-04T05:32:46;95626.88;;;13.71;66.23
27210;BME280;14721;42.668;23.386;2022-10-04T05:35:20;95620.13;;;14.30;63.29
27210;BME280;14721;42.668;23.386;2022-10-04T05:37:54;95619.06;;;14.21;62.06
27210;BME280;14721;42.668;23.386;2022-10-04T05:43:22;95638.72;;;13.79;63.92
27210;BME280;14721;42.668;23.386;2022-10-04T05:48:35;95640.34;;;14.02;62.76
27210;BME280;14721;42.668;23.386;2022-10-04T05:51:00;95644.84;;;14.96;61.20
27210;BME280;14721;42.668;23.386;2022-10-04T05:53:31;95634.28;;;16.33;57.49
27210;BME280;14721;42.668;23.386;2022-10-04T06:05:40;95640.34;;;18.83;48.48
27210;BME280;14721;42.668;23.386;2022-10-04T06:07:44;95651.06;;;19.10;46.94
27210;BME280;14721;42.668;23.386;2022-10-04T06:13:08;95650.00;;;20.05;45.04
27210;BME280;14721;42.668;23.386;2022-10-04T06:15:55;95655.09;;;20.08;45.14
27210;BME280;14721;42.668;23.386;2022-10-04T06:21:15;95663.06;;;20.60;43.99
27210;BME280;14721;42.668;23.386;2022-10-04T06:23:56;95665.91;;;20.34;43.90
27210;BME280;14721;42.668;23.386;2022-10-04T06:29:14;95666.97;;;20.49;43.38
27210;BME280;14721;42.668;23.386;2022-10-04T06:34:29;95669.69;;;20.49;42.90
27210;BME280;14721;42.668;23.386;2022-10-04T06:39:45;95667.88;;;20.82;41.97
27210;BME280;14721;42.668;23.386;2022-10-04T06:45:25;95675.75;;;21.25;41.68
27210;BME280;14721;42.668;23.386;2022-10-04T06:50:27;95676.78;;;21.48;40.39
27210;BME280;14721;42.668;23.386;2022-10-04T06:53:23;95662.97;;;21.57;39.54
27210;BME280;14721;42.668;23.386;2022-10-04T06:56:06;95681.69;;;21.20;40.60
27210;BME280;14721;42.668;23.386;2022-10-04T07:03:44;95683.38;;;21.53;39.76
27210;BME280;14721;42.668;23.386;2022-10-04T07:06:12;95681.16;;;21.17;40.34
27210;BME280;14721;42.668;23.386;2022-10-04T07:08:48;95677.50;;;20.52;41.45
27210;BME280;14721;42.668;23.386;2022-10-04T07:13:57;95687.25;;;19.44;43.50
27210;BME280;14721;42.668;23.386;2022-10-04T07:24:43;95699.63;;;18.14;45.52
27210;BME280;14721;42.668;23.386;2022-10-04T07:27:19;95710.50;;;17.68;46.63
27210;BME280;14721;42.668;23.386;2022-10-04T07:29:52;95710.25;;;17.43;48.04
27210;BME280;14721;42.668;23.386;2022-10-04T07:32:26;95718.09;;;16.98;48.30
27210;BME280;14721;42.668;23.386;2022-10-04T07:35:00;95721.94;;;16.48;49.26
27210;BME280;14721;42.668;23.386;2022-10-04T07:37:29;95714.34;;;16.42;50.08
27210;BME280;14721;42.668;23.386;2022-10-04T07:41:00;95716.56;;;16.18;50.70
27210;BME280;14721;42.668;23.386;2022-10-04T07:43:13;95719.81;;;16.12;51.45
27210;BME280;14721;42.668;23.386;2022-10-04T07:45:45;95725.03;;;16.04;51.38
27210;BME280;14721;42.668;23.386;2022-10-04T07:50:47;95725.41;;;15.60;52.50
27210;BME280;14721;42.668;23.386;2022-10-04T07:53:20;95710.16;;;15.19;53.45
27210;BME280;14721;42.668;23.386;2022-10-04T07:56:20;95725.31;;;15.20;52.91
27210;BME280;14721;42.668;23.386;2022-10-04T08:01:52;95737.41;;;14.94;54.46
27210;BME280;14721;42.668;23.386;2022-10-04T08:07:02;95737.94;;;14.88;54.40
27210;BME280;14721;42.668;23.386;2022-10-04T08:12:33;95737.25;;;15.06;55.17
27210;BME280;14721;42.668;23.386;2022-10-04T08:18:03;95717.50;;;15.38;53.78
27210;BME280;14721;42.668;23.386;2022-10-04T08:32:43;95722.69;;;15.90;51.94
27210;BME280;14721;42.668;23.386;2022-10-04T08:41:18;95717.09;;;16.80;49.44
27210;BME280;14721;42.668;23.386;2022-10-04T09:12:31;95688.00;;;16.74;48.74
27210;BME280;14721;42.668;23.386;2022-10-04T09:15:14;95711.00;;;17.07;48.93
27210;BME280;14721;42.668;23.386;2022-10-04T09:29:00;95709.31;;;16.86;48.62
27210;BME280;14721;42.668;23.386;2022-10-04T09:34:23;95712.72;;;16.88;48.33
27210;BME280;14721;42.668;23.386;2022-10-04T09:58:35;95721.66;;;16.89;47.70
27210;BME280;14721;42.668;23.386;2022-10-04T10:31:26;95699.72;;;17.49;46.00
27210;BME280;14721;42.668;23.386;2022-10-04T10:34:12;95728.72;;;17.38;46.60
27210;BME280;14721;42.668;23.386;2022-10-04T10:42:59;95729.16;;;17.52;47.69
27210;BME280;14721;42.668;23.386;2022-10-04T10:45:41;95730.69;;;17.64;47.22
27210;BME280;14721;42.668;23.386;2022-10-04T10:59:10;95728.03;;;17.26;47.93
27210;BME280;14721;42.668;23.386;2022-10-04T11:07:32;95733.31;;;17.28;47.09
27210;BME280;14721;42.668;23.386;2022-10-04T11:15:39;95720.47;;;17.39;47.38
27210;BME280;14721;42.668;23.386;2022-10-04T11:18:43;95728.19;;;17.15;47.58
27210;BME280;14721;42.668;23.386;2022-10-04T11:30:23;95720.44;;;17.68;46.34
27210;BME280;14721;42.668;23.386;2022-10-04T11:33:38;95728.22;;;17.80;46.38
27210;BME280;14721;42.668;23.386;2022-10-04T11:41:55;95726.97;;;18.11;45.71
27210;BME280;14721;42.668;23.386;2022-10-04T11:45:12;95727.59;;;18.23;45.45
27210;BME280;14721;42.668;23.386;2022-10-04T12:10:03;95726.44;;;17.52;47.39
27210;BME280;14721;42.668;23.386;2022-10-04T12:30:15;95724.91;;;17.50;46.50
27210;BME280;14721;42.668;23.386;2022-10-04T12:35:52;95723.19;;;17.49;46.15
27210;BME280;14721;42.668;23.386;2022-10-04T12:38:34;95740.59;;;17.83;46.42
27210;BME280;14721;42.668;23.386;2022-10-04T12:53:10;95738.16;;;17.89;45.21
27210;BME280;14721;42.668;23.386;2022-10-04T13:15:08;95717.69;;;16.64;46.97
27210;BME280;14721;42.668;23.386;2022-10-04T13:18:01;95716.81;;;16.64;47.56
27210;BME280;14721;42.668;23.386;2022-10-04T13:20:42;95716.69;;;16.65;47.54
27210;BME280;14721;42.668;23.386;2022-10-04T13:26:44;95720.38;;;16.64;47.46
27210;BME280;14721;42.668;23.386;2022-10-04T13:32:38;95722.09;;;16.26;47.76
27210;BME280;14721;42.668;23.386;2022-10-04T13:35:06;95700.19;;;16.00;48.42
27210;BME280;14721;42.668;23.386;2022-10-04T13:37:43;95711.28;;;16.07;48.96
27210;BME280;14721;42.668;23.386;2022-10-04T13:51:33;95738.16;;;16.18;49.08
27210;BME280;14721;42.668;23.386;2022-10-04T13:57:22;95743.81;;;16.24;49.08
27210;BME280;14721;42.668;23.386;2022-10-04T14:27:47;95774.69;;;16.01;49.53
27210;BME280;14721;42.668;23.386;2022-10-04T14:33:34;95779.22;;;15.71;50.49
27210;BME280;14721;42.668;23.386;2022-10-04T14:36:36;95783.84;;;15.59;49.30
27210;BME280;14721;42.668;23.386;2022-10-04T14:42:10;95790.66;;;15.43;50.73
27210;BME280;14721;42.668;23.386;2022-10-04T14:50:37;95799.09;;;15.18;50.94
27210;BME280;14721;42.668;23.386;2022-10-04T14:53:27;95793.72;;;15.18;51.53
27210;BME280;14721;42.668;23.386;2022-10-04T15:01:17;95809.19;;;15.04;52.55
27210;BME280;14721;42.668;23.386;2022-10-04T15:09:25;95808.84;;;14.66;54.07
27210;BME280;14721;42.668;23.386;2022-10-04T15:11:58;95826.31;;;14.72;54.05
27210;BME280;14721;42.668;23.386;2022-10-04T15:14:38;95831.19;;;14.67;54.72
27210;BME280;14721;42.668;23.386;2022-10-04T15:17:23;95828.19;;;14.60;55.30
27210;BME280;14721;42.668;23.386;2022-10-04T15:22:54;95847.75;;;14.51;55.90
27210;BME280;14721;42.668;23.386;2022-10-04T15:25:46;95848.47;;;14.53;55.75
27210;BME280;14721;42.668;23.386;2022-10-04T15:28:39;95854.22;;;14.49;56.00
27210;BME280;14721;42.668;23.386;2022-10-04T15:31:24;95851.19;;;14.42;56.56
27210;BME280;14721;42.668;23.386;2022-10-04T15:37:00;95853.13;;;14.29;57.34
27210;BME280;14721;42.668;23.386;2022-10-04T15:51:12;95857.25;;;13.89;59.16
27210;BME280;14721;42.668;23.386;2022-10-04T15:59:28;95865.06;;;13.70;60.70
27210;BME280;14721;42.668;23.386;2022-10-04T16:31:56;95914.81;;;13.52;62.86
27210;BME280;14721;42.668;23.386;2022-10-04T16:35:00;95928.75;;;13.68;62.91
27210;BME280;14721;42.668;23.386;2022-10-04T16:37:53;95925.31;;;13.55;62.29
27210;BME280;14721;42.668;23.386;2022-10-04T16:40:36;95927.47;;;13.50;62.65
27210;BME280;14721;42.668;23.386;2022-10-04T16:43:23;95925.50;;;13.41;62.95
27210;BME280;14721;42.668;23.386;2022-10-04T16:49:14;95932.31;;;13.45;62.77
27210;BME280;14721;42.668;23.386;2022-10-04T16:52:19;95945.28;;;13.51;63.28
27210;BME280;14721;42.668;23.386;2022-10-04T16:57:25;95938.22;;;13.50;63.51
27210;BME280;14721;42.668;23.386;2022-10-04T16:59:57;95948.09;;;13.50;63.56
27210;BME280;14721;42.668;23.386;2022-10-04T17:05:30;95955.19;;;13.51;63.08
27210;BME280;14721;42.668;23.386;2022-10-04T17:13:22;95968.97;;;13.46;63.48
27210;BME280;14721;42.668;23.386;2022-10-04T17:18:46;95966.66;;;13.53;63.24
27210;BME280;14721;42.668;23.386;2022-10-04T17:24:19;95975.03;;;13.48;63.53
27210;BME280;14721;42.668;23.386;2022-10-04T17:27:22;95977.72;;;13.48;63.75
27210;BME280;14721;42.668;23.386;2022-10-04T17:30:14;95985.66;;;13.50;64.21
27210;BME280;14721;42.668;23.386;2022-10-04T17:35:53;95994.38;;;13.53;63.93
27210;BME280;14721;42.668;23.386;2022-10-04T17:47:27;96000.47;;;13.55;64.09
27210;BME280;14721;42.668;23.386;2022-10-04T17:50:39;96002.66;;;13.50;64.48
27210;BME280;14721;42.668;23.386;2022-10-04T17:53:28;96003.50;;;13.51;64.24
27210;BME280;14721;42.668;23.386;2022-10-04T17:56:26;95997.28;;;13.50;64.20
27210;BME280;14721;42.668;23.386;2022-10-04T17:58:57;96010.06;;;13.47;64.47
27210;BME280;14721;42.668;23.386;2022-10-04T18:01:31;96021.25;;;13.41;64.39
27210;BME280;14721;42.668;23.386;2022-10-04T18:04:06;96026.41;;;13.44;64.47
27210;BME280;14721;42.668;23.386;2022-10-04T18:06:45;96025.22;;;13.48;64.83
27210;BME280;14721;42.668;23.386;2022-10-04T18:11:57;96027.25;;;13.44;64.58
27210;BME280;14721;42.668;23.386;2022-10-04T18:17:10;96035.78;;;13.38;64.72
27210;BME280;14721;42.668;23.386;2022-10-04T18:22:15;96036.34;;;13.31;64.76
27210;BME280;14721;42.668;23.386;2022-10-04T18:24:43;96041.59;;;13.32;64.75
27210;BME280;14721;42.668;23.386;2022-10-04T18:27:23;96046.44;;;13.27;64.87
27210;BME280;14721;42.668;23.386;2022-10-04T18:30:11;96041.63;;;13.19;65.30
27210;BME280;14721;42.668;23.386;2022-10-04T18:32:54;96039.94;;;13.06;65.93
27210;BME280;14721;42.668;23.386;2022-10-04T18:35:31;96035.03;;;13.00;66.15
27210;BME280;14721;42.668;23.386;2022-10-04T18:40:34;96036.09;;;12.97;66.74
27210;BME280;14721;42.668;23.386;2022-10-04T18:43:26;96036.63;;;12.90;67.45
27210;BME280;14721;42.668;23.386;2022-10-04T18:46:14;96027.44;;;12.81;67.75
27210;BME280;14721;42.668;23.386;2022-10-04T18:51:36;96053.59;;;12.90;67.70
27210;BME280;14721;42.668;23.386;2022-10-04T19:05:38;96057.47;;;12.74;68.61
27210;BME280;14721;42.668;23.386;2022-10-04T19:11:23;96059.28;;;12.73;68.52
27210;BME280;14721;42.668;23.386;2022-10-04T19:22:31;96073.28;;;12.53;69.27
27210;BME280;14721;42.668;23.386;2022-10-04T19:30:21;96072.06;;;12.20;71.85
27210;BME280;14721;42.668;23.386;2022-10-04T19:32:58;96076.75;;;12.16;71.27
27210;BME280;14721;42.668;23.386;2022-10-04T19:41:47;96083.78;;;11.92;73.26
27210;BME280;14721;42.668;23.386;2022-10-04T19:52:54;96078.06;;;11.72;73.84
27210;BME280;14721;42.668;23.386;2022-10-04T19:58:41;96081.63;;;11.85;73.47
27210;BME280;14721;42.668;23.386;2022-10-04T20:01:13;96093.09;;;11.87;73.39
27210;BME280;14721;42.668;23.386;2022-10-04T20:03:40;96084.50;;;11.82;73.55
27210;BME280;14721;42.668;23.386;2022-10-04T20:06:06;96089.53;;;11.86;73.90
27210;BME280;14721;42.668;23.386;2022-10-04T20:08:56;96102.94;;;11.86;73.62
27210;BME280;14721;42.668;23.386;2022-10-04T20:25:08;96115.03;;;11.79;74.25
27210;BME280;14721;42.668;23.386;2022-10-04T20:37:07;96104.22;;;11.40;75.58
27210;BME280;14721;42.668;23.386;2022-10-04T20:42:26;96114.63;;;11.44;76.31
27210;BME280;14721;42.668;23.386;2022-10-04T20:44:59;96124.16;;;11.48;75.21
27210;BME280;14721;42.668;23.386;2022-10-04T20:47:44;96128.59;;;11.50;74.99
27210;BME280;14721;42.668;23.386;2022-10-04T20:50:35;96132.00;;;11.52;75.25
27210;BME280;14721;42.668;23.386;2022-10-04T20:53:28;96127.63;;;11.51;75.40
27210;BME280;14721;42.668;23.386;2022-10-04T20:58:51;96125.03;;;11.49;75.35
27210;BME280;14721;42.668;23.386;2022-10-04T21:01:28;96134.97;;;11.47;75.30
27210;BME280;14721;42.668;23.386;2022-10-04T21:04:25;96135.38;;;11.41;76.33
27210;BME280;14721;42.668;23.386;2022-10-04T21:07:04;96108.88;;;11.24;75.76
27210;BME280;14721;42.668;23.386;2022-10-04T21:09:32;96141.88;;;11.37;76.39
27210;BME280;14721;42.668;23.386;2022-10-04T21:12:00;96140.88;;;11.25;77.10
27210;BME280;14721;42.668;23.386;2022-10-04T21:14:30;96134.00;;;11.07;78.19
27210;BME280;14721;42.668;23.386;2022-10-04T21:17:04;96132.47;;;11.03;78.79
27210;BME280;14721;42.668;23.386;2022-10-04T21:27:26;96149.00;;;10.82;80.23
27210;BME280;14721;42.668;23.386;2022-10-04T21:29:52;96154.28;;;10.83;80.66
27210;BME280;14721;42.668;23.386;2022-10-04T21:32:22;96158.56;;;10.86;79.84
27210;BME280;14721;42.668;23.386;2022-10-04T21:34:49;96155.78;;;10.73;80.92
27210;BME280;14721;42.668;23.386;2022-10-04T21:37:15;96158.53;;;10.72;81.27
27210;BME280;14721;42.668;23.386;2022-10-04T21:39:41;96152.81;;;10.78;80.88
27210;BME280;14721;42.668;23.386;2022-10-04T21:42:06;96152.72;;;10.79;80.79
27210;BME280;14721;42.668;23.386;2022-10-04T21:44:32;96138.81;;;10.74;81.37
27210;BME280;14721;42.668;23.386;2022-10-04T21:46:58;96143.38;;;10.72;82.01
27210;BME280;14721;42.668;23.386;2022-10-04T21:49:24;96147.19;;;10.68;82.36
27210;BME280;14721;42.668;23.386;2022-10-04T21:51:49;96158.81;;;10.67;82.79
27210;BME280;14721;42.668;23.386;2022-10-04T21:54:15;96129.16;;;10.58;82.54
27210;BME280;14721;42.668;23.386;2022-10-04T21:56:41;96143.75;;;10.66;82.63
27210;BME280;14721;42.668;23.386;2022-10-04T21:59:06;96138.97;;;10.57;83.22
27210;BME280;14721;42.668;23.386;2022-10-04T22:01:33;96152.72;;;10.65;83.01
27210;BME280;14721;42.668;23.386;2022-10-04T22:03:59;96143.25;;;10.60;82.93
27210;BME280;14721;42.668;23.386;2022-10-04T22:06:24;96145.56;;;10.52;83.67
27210;BME280;14721;42.668;23.386;2022-10-04T22:08:50;96153.84;;;10.47;84.44
27210;BME280;14721;42.668;23.386;2022-10-04T22:11:16;96157.63;;;10.43;84.51
27210;BME280;14721;42.668;23.386;2022-10-04T22:13:43;96143.41;;;10.29;84.90
27210;BME280;14721;42.668;23.386;2022-10-04T22:16:11;96161.91;;;10.18;87.09
27210;BME280;14721;42.668;23.386;2022-10-04T22:18:37;96164.31;;;10.22;86.91
27210;BME280;14721;42.668;23.386;2022-10-04T22:21:03;96171.91;;;10.14;87.34
27210;BME280;14721;42.668;23.386;2022-10-04T22:23:32;96146.78;;;9.87;88.21
27210;BME280;14721;42.668;23.386;2022-10-04T22:26:11;96171.50;;;9.91;88.63
27210;BME280;14721;42.668;23.386;2022-10-04T22:28:43;96163.06;;;9.83;89.32
27210;BME280;14721;42.668;23.386;2022-10-04T22:31:14;96176.16;;;9.87;89.02
27210;BME280;14721;42.668;23.386;2022-10-04T22:33:42;96178.03;;;9.85;89.46
27210;BME280;14721;42.668;23.386;2022-10-04T22:38:56;96170.03;;;9.85;89.49
27210;BME280;14721;42.668;23.386;2022-10-04T22:41:37;96177.47;;;9.80;89.09
27210;BME280;14721;42.668;23.386;2022-10-04T22:44:29;96161.97;;;9.71;89.43
27210;BME280;14721;42.668;23.386;2022-10-04T22:46:58;96189.16;;;9.78;89.56
27210;BME280;14721;42.668;23.386;2022-10-04T22:49:32;96187.09;;;9.67;90.07
27210;BME280;14721;42.668;23.386;2022-10-04T22:52:02;96193.81;;;9.58;90.59
27210;BME280;14721;42.668;23.386;2022-10-04T22:54:32;96195.81;;;9.55;90.54
27210;BME280;14721;42.668;23.386;2022-10-04T22:57:00;96197.38;;;9.59;90.64
27210;BME280;14721;42.668;23.386;2022-10-04T22:59:38;96195.41;;;9.47;91.04
27210;BME280;14721;42.668;23.386;2022-10-04T23:02:20;96196.41;;;9.44;90.61
27210;BME280;14721;42.668;23.386;2022-10-04T23:04:50;96197.28;;;9.45;90.56
27210;BME280;14721;42.668;23.386;2022-10-04T23:07:17;96195.47;;;9.45;90.34
27210;BME280;14721;42.668;23.386;2022-10-04T23:09:43;96198.13;;;9.30;91.01
27210;BME280;14721;42.668;23.386;2022-10-04T23:12:09;96201.75;;;9.29;91.08
27210;BME280;14721;42.668;23.386;2022-10-04T23:14:36;96191.09;;;9.29;91.65
27210;BME280;14721;42.668;23.386;2022-10-04T23:17:16;96185.75;;;9.29;91.52
27210;BME280;14721;42.668;23.386;2022-10-04T23:19:44;96187.81;;;9.24;92.08
27210;BME280;14721;42.668;23.386;2022-10-04T23:22:15;96194.25;;;9.20;92.58
27210;BME280;14721;42.668;23.386;2022-10-04T23:24:42;96192.59;;;9.17;93.08
27210;BME280;14721;42.668;23.386;2022-10-04T23:27:15;96198.81;;;9.18;93.12
27210;BME280;14721;42.668;23.386;2022-10-04T23:29:43;96176.44;;;9.05;92.84
27210;BME280;14721;42.668;23.386;2022-10-04T23:32:16;96197.75;;;9.20;93.43
27210;BME280;14721;42.668;23.386;2022-10-04T23:34:47;96205.19;;;9.15;94.34
27210;BME280;14721;42.668;23.386;2022-10-04T23:37:22;96216.00;;;9.12;94.25
27210;BME280;14721;42.668;23.386;2022-10-04T23:39:51;96209.25;;;9.05;94.32
27210;BME280;14721;42.668;23.386;2022-10-04T23:42:19;96209.69;;;8.98;94.70